Time;durP1;ratioP1;P1;durP2;ratioP2;P2;SDS_P1;SDS_P2;PMS_P1;PMS_P2;Temp;Humidity;BMP_temperature;BMP_pressure;BME280_temperature;BME280_humidity;BME280_pressure;Samples;Min_cycle;Max_cycle;Signal;HPM_P1;HPM_P2
2023/12/04 00:01:26;;;;;;;;;10.00;9.67;;;;;5.83;43.64;100545.88;5056308;28;45341;-83
2023/12/04 00:03:52;;;;;;;;;17.00;13.00;;;;;4.92;43.91;100382.38;5057476;28;45240;-83
2023/12/04 00:06:18;;;;;;;;;9.67;8.67;;;;;5.78;43.99;100531.19;5065793;28;45419;-81
2023/12/04 00:08:43;;;;;;;;;4.00;3.00;;;;;5.62;43.72;100512.28;5072187;28;45235;-83
2023/12/04 00:11:09;;;;;;;;;11.33;9.00;;;;;5.52;43.56;100486.72;5065656;28;45367;-84
2023/12/04 00:13:34;;;;;;;;;10.67;8.00;;;;;5.72;44.30;100504.47;5057866;28;45485;-82
2023/12/04 00:16:00;;;;;;;;;17.33;10.67;;;;;5.38;43.98;100456.13;5063298;28;46802;-81
2023/12/04 00:18:25;;;;;;;;;15.00;11.00;;;;;5.42;44.26;100454.94;5069128;28;45307;-83
2023/12/04 00:20:51;;;;;;;;;13.00;10.00;;;;;5.41;45.02;100453.28;5065820;28;45377;-80
2023/12/04 00:23:16;;;;;;;;;9.33;9.00;;;;;5.68;44.91;100498.59;5055726;28;45443;-83
2023/12/04 00:25:42;;;;;;;;;13.00;11.00;;;;;5.57;44.54;100461.66;5053650;28;47274;-83
2023/12/04 00:28:07;;;;;;;;;9.00;8.00;;;;;5.44;44.83;100443.31;5063509;28;45429;-83
2023/12/04 00:30:32;;;;;;;;;11.67;8.00;;;;;5.61;45.10;100449.94;5066536;28;45641;-80
2023/12/04 00:32:58;;;;;;;;;11.00;10.00;;;;;5.35;44.35;100390.47;5074526;28;45274;-79
2023/12/04 00:35:23;;;;;;;;;11.33;8.67;;;;;5.56;44.17;100416.94;5057958;28;45456;-82
2023/12/04 00:37:48;;;;;;;;;9.00;8.00;;;;;5.84;44.82;100444.66;5065368;28;45314;-78
2023/12/04 00:40:14;;;;;;;;;8.00;7.67;;;;;6.01;43.92;100470.59;5074429;28;45381;-79
2023/12/04 00:42:39;;;;;;;;;14.67;8.33;;;;;5.66;44.70;100421.41;5069352;27;45425;-81
2023/12/04 00:45:05;;;;;;;;;9.33;9.33;;;;;5.96;44.59;100464.81;5085850;27;46203;-80
2023/12/04 00:47:31;;;;;;;;;10.67;9.67;;;;;5.98;44.08;100449.69;5086191;27;45283;-81
2023/12/04 00:49:56;;;;;;;;;12.67;11.67;;;;;5.78;44.56;100414.28;5077580;27;45350;-79
2023/12/04 00:52:21;;;;;;;;;11.33;9.00;;;;;5.96;44.65;100428.69;5079262;27;45260;-80
2023/12/04 00:54:46;;;;;;;;;9.00;7.67;;;;;5.94;44.95;100430.63;5084471;27;51383;-80
2023/12/04 00:57:12;;;;;;;;;9.00;6.67;;;;;5.14;44.53;100293.66;5084984;27;45426;-79
2023/12/04 00:59:37;;;;;;;;;6.33;6.33;;;;;5.75;44.85;100386.38;5097766;27;45606;-80
2023/12/04 01:02:03;;;;;;;;;9.33;9.33;;;;;5.44;44.73;100331.75;5092850;27;45490;-79
2023/12/04 01:04:29;;;;;;;;;8.67;8.33;;;;;5.79;44.90;100377.25;5080198;27;45598;-81
2023/12/04 01:06:55;;;;;;;;;9.33;5.67;;;;;6.00;45.33;100392.34;5090216;27;45463;-79
2023/12/04 01:09:24;;;;;;;;;5.00;5.00;;;;;5.90;44.41;100370.31;5082282;27;45396;-79
2023/12/04 01:11:53;;;;;;;;;11.00;10.33;;;;;6.13;44.97;100397.50;5069906;27;45330;-78
2023/12/04 01:14:18;;;;;;;;;12.00;9.00;;;;;6.05;45.06;100363.81;5088450;27;46641;-78
2023/12/04 01:16:44;;;;;;;;;7.00;6.00;;;;;5.71;45.38;100303.19;5098059;27;45394;-78
2023/12/04 01:19:09;;;;;;;;;10.67;6.00;;;;;6.24;44.87;100379.84;5098618;27;45334;-78
2023/12/04 01:21:35;;;;;;;;;5.67;4.67;;;;;6.10;45.36;100330.78;5089169;27;45344;-81
2023/12/04 01:24:00;;;;;;;;;1.00;1.00;;;;;6.04;44.82;100320.75;5094643;27;45334;-81
2023/12/04 01:26:26;;;;;;;;;8.00;6.00;;;;;5.82;44.36;100283.03;5089929;27;45438;-82
2023/12/04 01:28:51;;;;;;;;;4.67;4.67;;;;;6.20;45.28;100332.66;5068286;27;45477;-81
2023/12/04 01:31:16;;;;;;;;;7.33;5.33;;;;;5.94;45.37;100292.59;5089130;27;45326;-79
2023/12/04 01:33:42;;;;;;;;;9.67;9.00;;;;;5.96;44.75;100298.56;5088731;27;45412;-77
2023/12/04 01:36:08;;;;;;;;;13.00;8.33;;;;;6.04;45.42;100320.75;5078137;27;45469;-79
2023/12/04 01:38:33;;;;;;;;;9.00;8.67;;;;;5.84;45.20;100291.66;5077012;27;45304;-77
2023/12/04 01:40:58;;;;;;;;;10.00;9.00;;;;;5.98;45.49;100315.13;5085123;27;45471;-79
2023/12/04 01:43:24;;;;;;;;;5.00;3.00;;;;;5.99;45.60;100329.97;5067413;27;46334;-82
2023/12/04 01:45:49;;;;;;;;;8.67;8.67;;;;;5.92;46.20;100331.44;5083802;27;45471;-81
2023/12/04 01:48:15;;;;;;;;;9.33;8.00;;;;;5.96;45.72;100351.34;5063859;27;45530;-80
2023/12/04 01:50:40;;;;;;;;;9.67;5.00;;;;;5.78;45.80;100306.16;5087977;27;45294;-79
2023/12/04 01:53:06;;;;;;;;;12.33;7.33;;;;;6.02;46.30;100324.47;5076667;27;45271;-80
2023/12/04 01:55:33;;;;;;;;;8.67;8.33;;;;;5.82;46.01;100283.03;5086627;27;45306;-80
2023/12/04 01:58:02;;;;;;;;;9.33;8.00;;;;;6.04;45.49;100318.13;5082632;27;45585;-80
2023/12/04 02:00:29;;;;;;;;;12.00;9.33;;;;;5.38;46.44;100205.69;5103972;27;45445;-77
2023/12/04 02:02:55;;;;;;;;;9.67;9.67;;;;;5.47;45.70;100223.41;5088291;27;45436;-78
2023/12/04 02:05:22;;;;;;;;;8.67;8.67;;;;;5.93;46.37;100330.50;5079778;27;45355;-78
2023/12/04 02:07:48;;;;;;;;;10.33;10.33;;;;;4.98;46.76;100172.00;5088740;27;45589;-79
2023/12/04 02:10:13;;;;;;;;;9.67;7.33;;;;;5.82;46.18;100315.50;5079152;27;45545;-80
2023/12/04 02:12:39;;;;;;;;;8.00;5.67;;;;;5.94;46.67;100332.16;5086992;27;46200;-81
2023/12/04 02:15:05;;;;;;;;;8.33;8.33;;;;;5.96;46.94;100322.31;5080897;27;45463;-79
2023/12/04 02:17:32;;;;;;;;;9.00;7.67;;;;;5.66;46.51;100257.88;5080430;27;45479;-80
2023/12/04 02:19:58;;;;;;;;;9.33;8.00;;;;;5.90;45.94;100304.34;5085013;27;45552;-76
2023/12/04 02:22:23;;;;;;;;;9.00;7.33;;;;;5.56;47.07;100254.31;5081506;27;46226;-79
2023/12/04 02:24:49;;;;;;;;;9.67;8.67;;;;;5.44;46.42;100228.94;5086539;27;45235;-80
2023/12/04 02:27:17;;;;;;;;;11.00;8.33;;;;;5.87;46.77;100294.03;5075821;27;45362;-78
2023/12/04 02:29:50;;;;;;;;;10.33;8.33;;;;;6.06;46.43;100307.44;5084214;27;45448;-77
2023/12/04 02:32:20;;;;;;;;;10.00;9.00;;;;;6.11;46.38;100315.78;5075458;27;45531;-78
2023/12/04 02:34:48;;;;;;;;;8.00;7.67;;;;;6.10;46.48;100303.56;5072801;27;45592;-79
2023/12/04 02:37:14;;;;;;;;;10.00;5.67;;;;;6.00;46.03;100281.53;5076834;27;45472;-79
2023/12/04 02:39:40;;;;;;;;;11.33;10.00;;;;;6.16;46.12;100318.06;5079946;27;45385;-80
2023/12/04 02:42:06;;;;;;;;;11.67;8.67;;;;;5.85;46.56;100270.41;5094666;27;46332;-78
2023/12/04 02:44:31;;;;;;;;;8.67;6.00;;;;;5.68;46.70;100255.13;5073405;28;45492;-81
2023/12/04 02:46:58;;;;;;;;;7.33;7.33;;;;;6.09;46.61;100313.28;5075693;27;45496;-79
2023/12/04 02:49:23;;;;;;;;;4.00;2.67;;;;;6.06;46.51;100313.53;5075861;27;45501;-81
2023/12/04 02:51:49;;;;;;;;;7.33;7.33;;;;;6.01;46.46;100297.25;5073364;28;46078;-82
2023/12/04 02:54:14;;;;;;;;;13.33;10.00;;;;;5.02;47.29;100152.38;5083803;27;45468;-82
2023/12/04 02:56:39;;;;;;;;;12.00;8.33;;;;;5.93;47.59;100309.38;5085429;27;45532;-80
2023/12/04 02:59:05;;;;;;;;;8.00;4.33;;;;;5.93;47.54;100290.91;5068752;27;45319;-80
2023/12/04 03:01:30;;;;;;;;;9.67;9.67;;;;;5.52;47.42;100213.31;5087529;27;45442;-81
2023/12/04 03:03:55;;;;;;;;;9.67;9.00;;;;;5.69;47.70;100252.34;5077202;27;45500;-80
2023/12/04 03:06:21;;;;;;;;;9.33;9.33;;;;;5.92;47.20;100276.03;5067819;27;45447;-81
2023/12/04 03:08:46;;;;;;;;;9.00;9.00;;;;;5.68;47.16;100231.38;5082572;27;45653;-82
2023/12/04 03:11:11;;;;;;;;;10.67;8.67;;;;;5.89;48.13;100252.53;5081653;27;45259;-79
2023/12/04 03:13:38;;;;;;;;;4.33;1.67;;;;;5.85;47.41;100230.00;5078598;27;45597;-77
2023/12/04 03:16:04;;;;;;;;;8.00;8.00;;;;;5.89;47.44;100234.06;5087240;27;45243;-79
2023/12/04 03:18:29;;;;;;;;;7.33;7.33;;;;;5.85;47.33;100232.66;5081068;27;45297;-78
2023/12/04 03:20:54;;;;;;;;;9.33;5.33;;;;;5.68;48.40;100208.50;5067201;27;47135;-81
2023/12/04 03:23:20;;;;;;;;;8.33;6.33;;;;;5.80;48.26;100238.28;5088914;27;45481;-78
2023/12/04 03:25:45;;;;;;;;;10.00;8.33;;;;;5.66;48.17;100210.41;5065861;27;45709;-82
2023/12/04 03:28:10;;;;;;;;;5.00;5.00;;;;;5.67;48.04;100196.25;5093552;27;45467;-80
2023/12/04 03:30:36;;;;;;;;;10.00;6.33;;;;;5.60;48.79;100176.63;5080031;27;45253;-80
2023/12/04 03:33:01;;;;;;;;;4.67;4.67;;;;;5.90;48.32;100222.56;5076617;27;45489;-80
2023/12/04 03:35:26;;;;;;;;;8.33;6.33;;;;;5.83;48.02;100205.56;5084252;27;46229;-79
2023/12/04 03:37:52;;;;;;;;;5.67;4.67;;;;;5.66;47.87;100178.78;5080010;27;45370;-83
2023/12/04 03:40:17;;;;;;;;;8.00;8.00;;;;;5.34;48.75;100115.50;5081069;27;45645;-81
2023/12/04 03:42:43;;;;;;;;;7.33;4.67;;;;;5.72;47.81;100167.69;5078362;27;45541;-82
2023/12/04 03:45:09;;;;;;;;;9.00;6.00;;;;;6.00;48.62;100218.19;5095357;27;45310;-83
2023/12/04 03:47:34;;;;;;;;;5.33;2.67;;;;;5.90;47.71;100190.91;5100615;27;45513;-80
2023/12/04 03:49:59;;;;;;;;;8.67;6.00;;;;;5.90;48.20;100185.63;5096812;27;46268;-80
2023/12/04 03:52:25;;;;;;;;;13.00;9.00;;;;;6.07;48.07;100207.03;5089247;27;45445;-80
2023/12/04 03:54:50;;;;;;;;;3.00;1.00;;;;;5.89;48.04;100176.03;5083892;27;45480;-77
2023/12/04 03:57:15;;;;;;;;;5.33;5.00;;;;;6.10;48.04;100198.00;5080185;27;45449;-80
2023/12/04 03:59:41;;;;;;;;;8.00;5.33;;;;;6.06;49.25;100210.63;5086027;27;45354;-81
2023/12/04 04:02:06;;;;;;;;;7.67;7.67;;;;;6.12;49.34;100209.28;5076162;27;45536;-78
2023/12/04 04:04:31;;;;;;;;;6.67;5.00;;;;;5.82;48.90;100141.41;5081712;27;45466;-81
2023/12/04 04:06:57;;;;;;;;;6.00;6.00;;;;;6.23;50.10;100206.56;5097217;27;45471;-79
2023/12/04 04:09:22;;;;;;;;;5.33;5.00;;;;;6.19;49.79;100191.94;5084577;27;46037;-80
2023/12/04 04:11:48;;;;;;;;;5.67;5.67;;;;;6.32;50.72;100212.88;5086399;27;45339;-79
2023/12/04 04:14:14;;;;;;;;;4.00;4.00;;;;;6.34;50.97;100197.72;5090414;27;45420;-79
2023/12/04 04:16:40;;;;;;;;;9.33;7.67;;;;;6.19;51.99;100176.09;5090205;27;45300;-82
2023/12/04 04:19:05;;;;;;;;;8.33;6.00;;;;;6.37;51.30;100206.22;5095882;27;45318;-82
2023/12/04 04:21:31;;;;;;;;;7.00;5.00;;;;;6.38;52.38;100197.34;5066114;27;45385;-81
2023/12/04 04:23:56;;;;;;;;;7.33;6.00;;;;;6.44;52.38;100184.59;5091281;27;45595;-79
2023/12/04 04:26:21;;;;;;;;;7.33;4.67;;;;;6.15;53.17;100137.75;5107111;27;45416;-79
2023/12/04 04:28:47;;;;;;;;;5.33;5.33;;;;;6.44;52.78;100174.03;5103162;27;47228;-77
2023/12/04 04:31:12;;;;;;;;;8.67;5.33;;;;;6.41;53.53;100180.41;5094171;27;45344;-80
2023/12/04 04:33:37;;;;;;;;;10.00;7.00;;;;;6.26;53.70;100150.88;5090159;27;45489;-80
2023/12/04 04:36:03;;;;;;;;;5.00;5.00;;;;;5.88;54.52;100072.31;5086461;27;45497;-78
2023/12/04 04:38:29;;;;;;;;;4.67;4.67;;;;;6.49;53.97;100163.91;5079626;27;46052;-79
2023/12/04 04:40:54;;;;;;;;;5.33;4.00;;;;;6.39;54.72;100148.84;5082337;27;45701;-81
2023/12/04 04:43:20;;;;;;;;;2.00;2.00;;;;;6.44;55.84;100139.72;5090626;27;45593;-79
2023/12/04 04:45:45;;;;;;;;;6.00;5.00;;;;;6.23;56.31;100101.00;5098407;27;45425;-79
2023/12/04 04:48:11;;;;;;;;;4.00;3.00;;;;;6.25;56.29;100101.69;5088788;27;45384;-80
2023/12/04 04:50:36;;;;;;;;;6.67;5.00;;;;;6.20;57.89;100095.94;5097570;27;45423;-81
2023/12/04 04:53:01;;;;;;;;;6.00;6.00;;;;;5.92;57.86;100057.06;5081664;27;45476;-80
2023/12/04 04:55:27;;;;;;;;;4.00;4.00;;;;;6.17;58.20;100087.47;5088533;27;45458;-79
2023/12/04 04:57:52;;;;;;;;;6.00;6.00;;;;;6.34;58.72;100116.72;5089541;27;45363;-78
2023/12/04 05:00:18;;;;;;;;;9.67;7.33;;;;;6.34;58.94;100111.44;5081182;27;45489;-79
2023/12/04 05:02:43;;;;;;;;;3.33;3.33;;;;;6.32;58.80;100100.19;5088726;27;45524;-76
2023/12/04 05:05:08;;;;;;;;;6.00;6.00;;;;;6.24;59.87;100109.75;5099484;27;45302;-78
2023/12/04 05:07:34;;;;;;;;;5.00;4.33;;;;;6.21;59.60;100081.81;5089682;27;45461;-81
2023/12/04 05:09:59;;;;;;;;;3.00;3.00;;;;;5.82;60.10;100045.63;5087253;27;45480;-79
2023/12/04 05:12:24;;;;;;;;;5.67;5.67;;;;;5.71;61.47;100034.16;5092840;27;45298;-77
2023/12/04 05:14:50;;;;;;;;;4.00;4.00;;;;;5.86;62.29;100062.84;5081302;27;45289;-79
2023/12/04 05:17:15;;;;;;;;;10.00;6.00;;;;;5.65;61.81;100018.88;5086717;27;45499;-82
2023/12/04 05:19:40;;;;;;;;;5.00;2.00;;;;;5.82;62.33;100050.91;5079069;27;48914;-80
2023/12/04 05:22:06;;;;;;;;;5.00;5.00;;;;;5.92;62.82;100050.00;5091182;27;45410;-78
2023/12/04 05:24:31;;;;;;;;;8.00;6.00;;;;;5.95;63.38;100056.81;5077994;27;45286;-77
2023/12/04 05:26:56;;;;;;;;;6.00;6.00;;;;;5.97;63.25;100054.88;5089750;27;45881;-80
2023/12/04 05:29:22;;;;;;;;;4.00;4.00;;;;;5.75;64.23;100019.75;5070516;27;45653;-79
2023/12/04 05:31:47;;;;;;;;;7.33;5.33;;;;;5.83;63.62;100016.47;5088882;27;45341;-78
2023/12/04 05:34:12;;;;;;;;;4.67;4.67;;;;;5.98;64.08;100024.88;5097318;27;45529;-78
2023/12/04 05:36:38;;;;;;;;;3.00;3.00;;;;;5.38;63.66;99916.56;5087626;27;45591;-79
2023/12/04 05:39:04;;;;;;;;;1.00;1.00;;;;;6.00;64.20;100012.38;5088812;27;45729;-79
2023/12/04 05:41:30;;;;;;;;;8.00;8.00;;;;;5.90;64.47;100007.09;5091136;27;45511;-78
2023/12/04 05:43:55;;;;;;;;;6.00;6.00;;;;;5.87;65.55;99995.94;5089143;27;45353;-78
2023/12/04 05:46:21;;;;;;;;;5.67;5.67;;;;;5.84;65.92;99999.69;5093808;27;45987;-77
2023/12/04 05:48:46;;;;;;;;;5.00;5.00;;;;;5.69;66.11;99977.25;5095358;27;45483;-80
2023/12/04 05:51:11;;;;;;;;;5.00;5.00;;;;;5.69;65.87;99970.16;5076715;27;45405;-78
2023/12/04 05:53:37;;;;;;;;;6.33;5.67;;;;;5.59;65.67;99964.00;5093966;27;45383;-78
2023/12/04 05:56:04;;;;;;;;;6.67;6.33;;;;;5.46;66.50;99963.41;5091237;27;45611;-77
2023/12/04 05:58:29;;;;;;;;;4.00;4.00;;;;;5.47;66.57;99970.34;5075982;27;45763;-77
2023/12/04 06:00:55;;;;;;;;;5.67;4.33;;;;;5.21;67.28;99919.84;5084384;27;45419;-77
2023/12/04 06:03:20;;;;;;;;;8.33;5.67;;;;;5.35;67.64;99945.84;5084399;27;45624;-78
2023/12/04 06:05:45;;;;;;;;;4.67;4.67;;;;;5.38;68.26;99942.94;5077741;27;46365;-77
2023/12/04 06:08:10;;;;;;;;;8.33;4.67;;;;;5.35;67.81;99943.19;5089024;27;45428;-77
2023/12/04 06:10:36;;;;;;;;;7.33;7.00;;;;;5.06;68.46;99892.97;5075665;27;45436;-81
2023/12/04 06:13:01;;;;;;;;;8.00;5.00;;;;;4.86;67.64;99856.94;5085091;27;45567;-81
2023/12/04 06:15:26;;;;;;;;;8.33;5.00;;;;;5.28;68.32;99923.63;5084942;27;46075;-82
2023/12/04 06:17:52;;;;;;;;;6.67;5.00;;;;;5.25;69.07;99921.25;5092975;27;45220;-81
2023/12/04 06:20:17;;;;;;;;;5.00;5.00;;;;;5.10;70.01;99899.66;5076585;27;45518;-81
2023/12/04 06:22:43;;;;;;;;;4.00;4.00;;;;;4.63;70.08;99822.03;5094160;27;45596;-82
2023/12/04 06:25:09;;;;;;;;;4.00;4.00;;;;;5.16;70.44;99901.75;5077411;27;45997;-82
2023/12/04 06:27:35;;;;;;;;;7.00;5.00;;;;;4.64;69.99;99812.34;5094733;27;45534;-82
2023/12/04 06:30:00;;;;;;;;;4.00;4.00;;;;;5.20;71.39;99915.50;5081612;27;45430;-80
2023/12/04 06:32:26;;;;;;;;;4.67;4.67;;;;;5.07;71.24;99886.75;5059528;28;45528;-82
2023/12/04 06:34:51;;;;;;;;;7.00;5.00;;;;;4.73;71.92;99812.38;5070740;27;47925;-77
2023/12/04 06:37:17;;;;;;;;;4.00;4.00;;;;;5.25;71.79;99888.78;5102776;27;45115;-80
2023/12/04 06:39:45;;;;;;;;;6.00;4.67;;;;;5.41;72.52;99904.97;5102792;27;45170;-82
2023/12/04 06:42:11;;;;;;;;;4.67;3.67;;;;;5.34;72.28;99877.44;5102786;27;45273;-78
2023/12/04 06:44:37;;;;;;;;;3.33;3.33;;;;;4.67;72.32;99778.69;5099100;27;45641;-81
2023/12/04 06:47:04;;;;;;;;;4.00;3.00;;;;;5.49;72.69;99899.84;5105020;27;44933;-85
2023/12/04 06:49:31;;;;;;;;;6.33;5.00;;;;;4.54;73.12;99736.75;5107136;27;44939;-85
2023/12/04 06:51:56;;;;;;;;;2.00;2.00;;;;;5.52;73.70;99890.84;5096564;27;45142;-81
2023/12/04 06:54:22;;;;;;;;;4.00;4.00;;;;;5.58;73.01;99885.88;5094151;27;45304;-82
2023/12/04 06:56:47;;;;;;;;;6.00;6.00;;;;;5.62;73.66;99870.63;5100547;27;45532;-79
2023/12/04 06:59:13;;;;;;;;;5.00;3.00;;;;;5.61;73.49;99869.81;5114436;27;45291;-80
2023/12/04 07:01:38;;;;;;;;;3.00;3.00;;;;;5.61;73.16;99872.44;5078935;27;45400;-79
2023/12/04 07:04:09;;;;;;;;;5.00;5.00;;;;;5.12;73.59;99787.06;5090038;27;46390;-80
2023/12/04 07:06:36;;;;;;;;;4.00;2.67;;;;;5.61;74.51;99848.72;5083762;27;45354;-82
2023/12/04 07:09:01;;;;;;;;;6.00;6.00;;;;;5.50;74.17;99840.88;5078249;28;45355;-79
2023/12/04 07:11:27;;;;;;;;;8.00;4.67;;;;;5.67;74.09;99866.63;5078975;28;45618;-83
2023/12/04 07:13:52;;;;;;;;;6.67;4.00;;;;;5.70;74.06;99852.34;5091190;27;45345;-84
2023/12/04 07:16:18;;;;;;;;;4.00;3.00;;;;;4.76;73.92;99692.78;5086663;27;45474;-84
2023/12/04 07:18:43;;;;;;;;;1.00;1.00;;;;;5.39;73.97;99785.63;5075378;27;45385;-78
2023/12/04 07:21:09;;;;;;;;;9.33;5.33;;;;;5.85;74.31;99839.59;5087606;27;45583;-82
2023/12/04 07:23:35;;;;;;;;;1.67;1.67;;;;;5.79;74.31;99852.34;5088560;27;45477;-81
2023/12/04 07:26:00;;;;;;;;;3.33;3.00;;;;;5.25;73.61;99738.59;5085823;27;44952;-81
2023/12/04 07:28:26;;;;;;;;;5.00;4.00;;;;;4.75;73.83;99665.63;5094650;27;45421;-82
2023/12/04 07:30:51;;;;;;;;;6.67;6.67;;;;;5.77;74.70;99842.91;5092851;27;44949;-83
2023/12/04 07:33:17;;;;;;;;;4.50;4.50;;;;;5.87;74.76;99837.66;5096249;27;45427;-83
2023/12/04 07:35:43;;;;;;;;;5.00;4.00;;;;;5.74;74.51;99822.91;5116410;27;45352;-78
2023/12/04 07:38:08;;;;;;;;;5.00;5.00;;;;;5.16;74.89;99719.97;5097796;27;45500;-80
2023/12/04 07:40:34;;;;;;;;;4.00;3.33;;;;;5.68;74.63;99801.53;5087358;27;45351;-77
2023/12/04 07:42:59;;;;;;;;;5.00;3.67;;;;;5.40;73.96;99756.50;5101650;27;45384;-84
2023/12/04 07:45:25;;;;;;;;;6.67;3.67;;;;;5.56;74.91;99776.22;5084444;27;45398;-82
2023/12/04 07:47:50;;;;;;;;;5.00;5.00;;;;;5.89;74.88;99827.81;5089017;27;45370;-81
2023/12/04 07:50:16;;;;;;;;;6.00;4.67;;;;;5.43;75.45;99750.16;5084517;27;45502;-82
2023/12/04 07:52:41;;;;;;;;;5.00;5.00;;;;;5.98;74.56;99834.91;5080652;27;45087;-84
2023/12/04 07:55:07;;;;;;;;;3.67;3.67;;;;;5.90;74.94;99800.47;5090437;27;45530;-84
2023/12/04 07:57:32;;;;;;;;;3.00;3.00;;;;;6.08;74.50;99825.22;5090769;27;45389;-80
2023/12/04 07:59:58;;;;;;;;;4.67;4.00;;;;;5.79;74.61;99765.31;5089709;27;45259;-84
2023/12/04 08:02:23;;;;;;;;;3.00;3.00;;;;;4.22;74.32;99497.44;5082840;27;45733;-85
2023/12/04 08:04:48;;;;;;;;;6.33;4.00;;;;;6.20;74.24;99810.06;5097648;27;45397;-83
2023/12/04 08:07:14;;;;;;;;;9.67;5.00;;;;;5.86;74.40;99738.41;5102285;27;45647;-82
2023/12/04 08:09:41;;;;;;;;;4.33;4.33;;;;;6.23;74.74;99789.53;5086380;27;45600;-82
2023/12/04 08:12:07;;;;;;;;;5.33;5.00;;;;;6.27;74.65;99803.28;5092513;27;45962;-84
2023/12/04 08:14:35;;;;;;;;;3.67;3.67;;;;;5.54;73.91;99665.66;5096527;27;45245;-81
2023/12/04 08:17:03;;;;;;;;;4.00;4.00;;;;;6.34;74.53;99793.81;5074621;28;45652;-83
2023/12/04 08:19:30;;;;;;;;;6.67;3.67;;;;;5.85;74.08;99705.91;5103220;27;45440;-83
2023/12/04 08:21:55;;;;;;;;;6.00;5.00;;;;;6.21;74.91;99753.72;5089674;27;45251;-82
2023/12/04 08:24:21;;;;;;;;;4.67;4.00;;;;;6.18;74.82;99741.59;5081693;27;45730;-79
2023/12/04 08:26:46;;;;;;;;;4.00;4.00;;;;;6.44;74.69;99756.88;5095676;27;45374;-76
2023/12/04 08:29:12;;;;;;;;;3.00;3.00;;;;;6.48;74.39;99747.69;5078808;27;45546;-79
2023/12/04 08:31:37;;;;;;;;;6.00;3.67;;;;;6.65;74.29;99765.44;5086530;27;46586;-79
2023/12/04 08:34:02;;;;;;;;;3.00;3.00;;;;;6.70;73.95;99758.75;5077811;27;45478;-76
2023/12/04 08:36:28;;;;;;;;;2.00;2.00;;;;;6.73;74.01;99762.91;5079456;27;45505;-80
2023/12/04 08:38:53;;;;;;;;;4.33;4.33;;;;;6.19;73.59;99658.81;5089262;27;46978;-79
2023/12/04 08:41:18;;;;;;;;;4.00;4.00;;;;;6.26;73.30;99670.47;5085146;27;45598;-78
2023/12/04 08:43:44;;;;;;;;;2.33;1.67;;;;;6.21;73.65;99651.59;5075981;27;45653;-79
2023/12/04 08:46:16;;;;;;;;;7.33;4.00;;;;;6.66;73.45;99724.84;5096645;27;45519;-79
2023/12/04 08:48:42;;;;;;;;;4.00;4.00;;;;;6.79;73.86;99746.47;5101953;27;45374;-80
2023/12/04 08:51:10;;;;;;;;;3.67;3.67;;;;;6.83;73.86;99750.50;5085510;27;46445;-80
2023/12/04 08:53:36;;;;;;;;;5.00;4.00;;;;;6.27;73.09;99639.63;5102658;27;45460;-79
2023/12/04 08:56:02;;;;;;;;;2.00;2.00;;;;;6.89;74.00;99727.97;5094830;27;45636;-81
2023/12/04 08:58:28;;;;;;;;;3.00;3.00;;;;;6.53;73.50;99659.13;5096291;27;45307;-81
2023/12/04 09:00:53;;;;;;;;;6.33;6.00;;;;;6.10;73.98;99606.91;5071366;28;45603;-79
2023/12/04 09:03:20;;;;;;;;;3.00;2.00;;;;;6.69;73.80;99701.63;5086511;27;45382;-79
2023/12/04 09:05:46;;;;;;;;;2.67;2.33;;;;;5.09;73.66;99407.97;5089527;27;45248;-81
2023/12/04 09:08:11;;;;;;;;;2.00;2.00;;;;;6.42;73.59;99629.47;5090712;27;45380;-79
2023/12/04 09:10:36;;;;;;;;;6.33;4.33;;;;;6.68;73.20;99670.06;5093214;27;45559;-80
2023/12/04 09:13:02;;;;;;;;;0.00;0.00;;;;;6.46;72.81;99607.91;5097220;27;45648;-79
2023/12/04 09:15:28;;;;;;;;;2.33;2.33;;;;;6.81;73.13;99653.88;5101643;27;45463;-81
2023/12/04 09:17:53;;;;;;;;;7.00;4.00;;;;;6.17;73.16;99544.66;5084604;27;45464;-82
2023/12/04 09:20:18;;;;;;;;;6.00;4.00;;;;;7.08;73.06;99669.72;5087343;27;46000;-84
2023/12/04 09:22:44;;;;;;;;;4.00;4.00;;;;;7.07;72.34;99676.00;5093413;27;45636;-82
2023/12/04 09:25:10;;;;;;;;;3.33;2.00;;;;;7.37;72.98;99716.28;5091350;27;45414;-82
2023/12/04 09:27:35;;;;;;;;;4.00;4.00;;;;;6.18;72.62;99530.47;5073379;27;45391;-80
2023/12/04 09:30:01;;;;;;;;;4.00;3.00;;;;;6.70;72.87;99602.06;5081922;27;48190;-82
2023/12/04 09:32:32;;;;;;;;;3.67;3.67;;;;;7.26;73.42;99690.91;5096235;27;45528;-83
2023/12/04 09:34:58;;;;;;;;;5.00;3.00;;;;;7.10;74.14;99672.22;5087574;27;45545;-80
2023/12/04 09:37:24;;;;;;;;;5.33;4.33;;;;;7.20;73.61;99680.91;5088012;28;45569;-80
2023/12/04 09:39:49;;;;;;;;;2.67;1.00;;;;;6.83;73.46;99605.22;5109535;27;45616;-81
2023/12/04 09:42:18;;;;;;;;;6.67;5.00;;;;;7.29;73.48;99669.47;5065649;28;45384;-80
2023/12/04 09:44:44;;;;;;;;;8.00;6.00;;;;;7.12;74.02;99623.53;5087170;27;45455;-82
2023/12/04 09:47:10;;;;;;;;;6.00;4.00;;;;;7.32;73.41;99663.88;5077350;27;45533;-85
2023/12/04 09:49:37;;;;;;;;;3.67;3.33;;;;;7.38;73.44;99668.56;5091070;27;47192;-81
2023/12/04 09:52:04;;;;;;;;;4.00;3.00;;;;;6.08;73.27;99445.25;5098301;27;45451;-78
2023/12/04 09:54:30;;;;;;;;;5.00;4.00;;;;;7.45;73.76;99659.06;5082039;27;45679;-79
2023/12/04 09:56:56;;;;;;;;;6.33;4.00;;;;;7.01;73.60;99582.28;5082745;27;45574;-85
2023/12/04 09:59:25;;;;;;;;;6.67;4.33;;;;;7.38;73.48;99615.66;5094206;27;47101;-84
2023/12/04 10:01:51;;;;;;;;;5.00;3.00;;;;;7.20;73.26;99551.38;5085103;27;45316;-84
2023/12/04 10:04:16;;;;;;;;;7.33;5.33;;;;;6.73;73.54;99504.06;5103651;27;45480;-82
2023/12/04 10:06:43;;;;;;;;;9.00;6.00;;;;;7.57;74.11;99641.97;5075009;28;45449;-83
2023/12/04 10:09:11;;;;;;;;;4.00;4.00;;;;;6.43;74.19;99439.22;5089500;27;45469;-82
2023/12/04 10:11:41;;;;;;;;;3.00;2.67;;;;;7.26;74.39;99558.75;5085679;27;45404;-82
2023/12/04 10:14:19;;;;;;;;;2.00;2.00;;;;;7.38;75.03;99583.94;5093861;27;45562;-79
2023/12/04 10:16:46;;;;;;;;;7.00;3.00;;;;;7.52;74.66;99586.06;5088796;27;45422;-79
2023/12/04 10:19:18;;;;;;;;;4.00;4.00;;;;;7.62;74.87;99586.00;5080399;28;45484;-83
2023/12/04 10:21:48;;;;;;;;;3.00;3.00;;;;;6.32;74.76;99382.19;5097186;27;45582;-85
2023/12/04 10:24:39;;;;;;;;;2.00;2.00;;;;;7.76;74.83;99593.34;5098093;27;45120;-84
2023/12/04 10:27:10;;;;;;;;;5.00;5.00;;;;;7.67;74.63;99556.41;5100958;27;45373;-83
2023/12/04 10:30:06;;;;;;;;;7.00;5.00;;;;;7.90;74.23;99578.75;5091433;27;45604;-83
2023/12/04 10:32:36;;;;;;;;;11.00;9.33;;;;;7.15;74.52;99461.16;5097451;27;45443;-85
2023/12/04 10:35:02;;;;;;;;;6.33;5.00;;;;;7.94;74.52;99556.25;5092970;27;45421;-82
2023/12/04 10:37:29;;;;;;;;;4.00;4.00;;;;;8.11;73.90;99581.00;5081587;27;45574;-80
2023/12/04 10:39:56;;;;;;;;;5.00;4.00;;;;;7.94;74.20;99537.75;5084174;27;46276;-83
2023/12/04 10:42:30;;;;;;;;;4.00;4.00;;;;;8.00;74.05;99510.63;5076876;27;45993;-78
2023/12/04 10:44:57;;;;;;;;;7.67;5.00;;;;;8.47;73.53;99568.50;5089214;27;44913;-77
2023/12/04 10:47:23;;;;;;;;;3.33;3.33;;;;;7.10;72.72;99331.31;5113278;27;44796;-85
2023/12/04 10:49:50;;;;;;;;;4.00;3.33;;;;;8.39;72.93;99508.34;5117186;27;44986;-82
2023/12/04 10:52:18;;;;;;;;;4.00;4.00;;;;;8.08;72.80;99448.97;5093810;28;45201;-83
2023/12/04 10:54:47;;;;;;;;;6.00;6.00;;;;;8.77;72.35;99541.44;5102566;27;44917;-81
2023/12/04 10:57:28;;;;;;;;;13.00;11.33;;;;;8.88;72.39;99539.47;5089920;27;45334;-80
2023/12/04 11:00:02;;;;;;;;;6.00;6.00;;;;;8.95;72.11;99535.19;5091217;27;46276;-86
2023/12/04 11:02:31;;;;;;;;;6.00;6.00;;;;;8.58;71.68;99456.94;5098093;27;45445;-82
2023/12/04 11:05:13;;;;;;;;;5.67;5.67;;;;;9.09;71.70;99534.53;5105615;27;45457;-84
2023/12/04 11:07:52;;;;;;;;;6.00;6.00;;;;;8.02;71.43;99339.28;5082618;27;44833;-82
2023/12/04 11:10:22;;;;;;;;;5.00;3.67;;;;;9.11;71.48;99490.13;5088097;27;45473;-82
2023/12/04 11:12:55;;;;;;;;;10.67;6.33;;;;;8.50;71.27;99372.16;5095381;27;45374;-80
2023/12/04 11:15:25;;;;;;;;;7.00;7.00;;;;;9.17;71.55;99472.72;5097124;27;45457;-82
2023/12/04 11:17:58;;;;;;;;;8.00;6.00;;;;;9.11;71.57;99479.53;5088422;27;45114;-82
2023/12/04 11:20:30;;;;;;;;;6.33;6.00;;;;;8.65;71.29;99383.78;5097402;27;45084;-84
2023/12/04 11:23:17;;;;;;;;;7.67;6.33;;;;;9.10;71.79;99467.25;5098521;27;44878;-85
2023/12/04 11:25:44;;;;;;;;;7.00;5.67;;;;;9.03;71.74;99461.81;5089634;27;44829;-81
2023/12/04 11:28:12;;;;;;;;;7.00;4.67;;;;;8.46;72.07;99341.72;5101981;27;45278;-81
2023/12/04 11:30:38;;;;;;;;;5.67;5.00;;;;;9.19;71.75;99444.22;5102565;27;46932;-81
2023/12/04 11:33:05;;;;;;;;;7.67;4.67;;;;;9.22;71.85;99439.44;5099436;27;44848;-81